Time;durP1;ratioP1;P1;durP2;ratioP2;P2;SDS_P1;SDS_P2;PMS_P1;PMS_P2;Temp;Humidity;BMP_temperature;BMP_pressure;BME280_temperature;BME280_humidity;BME280_pressure;Samples;Min_cycle;Max_cycle;Signal;HPM_P1;HPM_P2
2023/09/27 00:00:04;;;;;;;4.80;3.87;;;11.80;67.40;;;;;;5051777;28;20464;-70
2023/09/27 00:02:29;;;;;;;3.90;3.50;;;11.80;66.60;;;;;;5051760;28;20412;-71
2023/09/27 00:04:55;;;;;;;5.57;3.90;;;11.80;67.00;;;;;;5051894;28;20452;-70
2023/09/27 00:07:21;;;;;;;3.70;3.20;;;11.80;66.50;;;;;;5051750;28;20203;-70
2023/09/27 00:09:47;;;;;;;4.40;3.10;;;11.70;68.50;;;;;;5051439;28;20674;-70
2023/09/27 00:12:12;;;;;;;4.83;3.77;;;11.70;67.80;;;;;;5052031;28;20406;-71
2023/09/27 00:14:38;;;;;;;6.03;4.33;;;11.70;68.00;;;;;;5033531;28;20176;-71
2023/09/27 00:17:03;;;;;;;3.97;3.30;;;11.70;67.80;;;;;;5033770;28;20183;-70
2023/09/27 00:19:30;;;;;;;4.07;3.53;;;11.60;66.70;;;;;;5051455;28;20201;-70
2023/09/27 00:21:56;;;;;;;4.17;2.97;;;11.50;68.60;;;;;;5051518;28;20170;-71
2023/09/27 00:24:21;;;;;;;4.10;3.50;;;11.50;69.10;;;;;;5051468;28;21016;-71
2023/09/27 00:26:47;;;;;;;5.63;3.33;;;11.50;71.30;;;;;;5051399;28;20222;-70
2023/09/27 00:29:12;;;;;;;4.63;3.83;;;11.50;69.40;;;;;;5051408;28;20194;-71
2023/09/27 00:31:38;;;;;;;5.90;4.27;;;11.50;71.20;;;;;;5052796;28;20179;-70
2023/09/27 00:34:04;;;;;;;9.20;3.50;;;11.60;70.70;;;;;;5051667;28;20179;-70
2023/09/27 00:36:30;;;;;;;4.30;3.50;;;11.50;69.60;;;;;;5033615;28;20241;-71
2023/09/27 00:38:55;;;;;;;4.63;3.37;;;11.50;69.40;;;;;;5051298;28;20436;-70
2023/09/27 00:41:22;;;;;;;6.33;3.80;;;11.40;70.70;;;;;;5051314;28;20248;-71
2023/09/27 00:43:48;;;;;;;4.13;3.73;;;11.40;71.30;;;;;;5033191;28;20297;-71
2023/09/27 00:46:16;;;;;;;4.43;3.73;;;11.30;69.30;;;;;;5051352;28;20451;-70
2023/09/27 00:48:42;;;;;;;6.70;4.50;;;11.30;71.40;;;;;;5051166;28;20660;-70
2023/09/27 00:51:08;;;;;;;8.40;5.10;;;11.20;72.40;;;;;;5051847;28;20409;-71
2023/09/27 00:53:36;;;;;;;5.10;4.60;;;11.30;74.90;;;;;;5054969;28;20405;-71
2023/09/27 00:56:02;;;;;;;6.93;5.03;;;11.30;74.40;;;;;;5055067;28;20171;-70
2023/09/27 00:58:32;;;;;;;6.63;4.93;;;11.40;74.10;;;;;;5055035;28;20443;-70
2023/09/27 01:00:59;;;;;;;6.10;4.40;;;11.40;73.60;;;;;;5055075;28;20447;-71
2023/09/27 01:03:25;;;;;;;5.47;4.53;;;11.40;72.60;;;;;;5054652;28;20498;-71
2023/09/27 01:05:51;;;;;;;7.83;5.30;;;11.40;72.60;;;;;;5054948;28;20894;-71
2023/09/27 01:08:16;;;;;;;6.23;4.80;;;11.40;72.60;;;;;;5054766;28;20622;-70
2023/09/27 01:10:42;;;;;;;6.93;5.37;;;11.40;72.60;;;;;;5054908;28;20174;-70
2023/09/27 01:13:08;;;;;;;4.70;4.13;;;11.40;72.60;;;;;;5054555;28;20562;-71
2023/09/27 01:15:34;;;;;;;5.60;5.10;;;11.40;72.60;;;;;;5054677;28;20525;-71
2023/09/27 01:18:02;;;;;;;5.27;4.80;;;11.30;72.50;;;;;;5036914;28;20503;-70
2023/09/27 01:20:29;;;;;;;6.40;3.87;;;11.30;72.50;;;;;;5054722;28;20161;-71
2023/09/27 01:22:59;;;;;;;6.67;4.40;;;11.30;71.70;;;;;;5036760;28;20420;-71
2023/09/27 01:25:32;;;;;;;5.23;4.53;;;11.30;71.40;;;;;;5054514;28;20464;-71
2023/09/27 01:28:03;;;;;;;4.83;4.40;;;11.20;72.30;;;;;;5054440;28;20405;-71
2023/09/27 01:30:32;;;;;;;5.00;3.80;;;11.10;72.50;;;;;;5054509;28;20448;-71
2023/09/27 01:32:59;;;;;;;5.87;4.23;;;11.10;70.60;;;;;;5054212;28;20435;-71
2023/09/27 01:35:25;;;;;;;4.73;3.90;;;11.00;72.20;;;;;;5054494;28;20419;-71
2023/09/27 01:37:51;;;;;;;4.40;4.00;;;11.00;72.40;;;;;;5054227;28;20413;-71
2023/09/27 01:40:30;;;;;;;7.40;4.60;;;11.00;72.20;;;;;;5054236;28;20178;-70
2023/09/27 01:42:59;;;;;;;5.07;4.57;;;10.90;72.30;;;;;;5054210;28;20179;-71
2023/09/27 01:45:25;;;;;;;4.53;4.10;;;10.90;73.10;;;;;;5054193;28;20895;-71
2023/09/27 01:47:51;;;;;;;4.13;3.47;;;10.90;72.10;;;;;;5054102;28;20485;-70
2023/09/27 01:50:19;;;;;;;5.27;4.43;;;10.90;72.10;;;;;;5054095;28;20413;-70
2023/09/27 01:52:45;;;;;;;5.43;4.37;;;10.90;72.30;;;;;;5036166;28;20178;-70
2023/09/27 01:55:11;;;;;;;3.90;3.50;;;10.80;72.00;;;;;;5053763;28;20849;-71
2023/09/27 01:57:36;;;;;;;4.37;3.67;;;10.90;72.10;;;;;;5054032;28;20503;-71
2023/09/27 02:00:05;;;;;;;5.43;4.63;;;10.80;72.00;;;;;;5053937;28;20288;-71
2023/09/27 02:02:31;;;;;;;6.03;4.13;;;10.90;73.00;;;;;;5035208;28;20186;-71
2023/09/27 02:04:56;;;;;;;4.63;3.77;;;10.90;70.40;;;;;;5053187;28;20459;-71
2023/09/27 02:07:22;;;;;;;5.17;4.50;;;10.90;72.10;;;;;;5035999;28;20174;-71
2023/09/27 02:09:47;;;;;;;4.03;3.63;;;10.90;72.10;;;;;;5054065;28;20206;-71
2023/09/27 02:12:13;;;;;;;5.27;4.00;;;10.90;72.10;;;;;;5053619;28;20170;-71
2023/09/27 02:14:38;;;;;;;4.47;3.97;;;10.80;70.80;;;;;;5053517;28;20178;-70
2023/09/27 02:17:04;;;;;;;5.60;4.00;;;10.80;72.00;;;;;;5053669;28;20185;-71
2023/09/27 02:19:29;;;;;;;6.87;5.30;;;10.80;72.00;;;;;;5053672;28;20281;-70
2023/09/27 02:21:55;;;;;;;5.13;4.03;;;10.80;72.10;;;;;;5053814;28;20174;-70
2023/09/27 02:24:20;;;;;;;4.40;3.70;;;10.70;72.00;;;;;;5053135;28;20207;-71
2023/09/27 02:26:46;;;;;;;5.80;4.33;;;10.60;72.20;;;;;;5053652;28;20171;-71
2023/09/27 02:29:11;;;;;;;5.50;4.73;;;10.60;73.20;;;;;;5053411;28;20237;-71
2023/09/27 02:31:38;;;;;;;4.63;4.23;;;10.60;73.50;;;;;;5053395;28;20193;-68
2023/09/27 02:34:03;;;;;;;5.87;4.53;;;10.60;73.20;;;;;;5053342;28;20198;-70
2023/09/27 02:36:29;;;;;;;4.37;3.97;;;10.60;73.30;;;;;;5053466;28;20827;-72
2023/09/27 02:38:54;;;;;;;6.10;4.70;;;10.60;74.00;;;;;;5035404;28;20213;-71
2023/09/27 02:41:20;;;;;;;6.17;5.10;;;10.50;71.70;;;;;;5053534;28;20187;-71
2023/09/27 02:43:45;;;;;;;6.27;4.67;;;10.50;73.20;;;;;;5035186;28;20259;-69
2023/09/27 02:46:11;;;;;;;6.60;5.53;;;10.40;72.50;;;;;;5053220;28;20196;-70
2023/09/27 02:48:36;;;;;;;6.23;5.57;;;10.40;72.00;;;;;;5053139;28;20530;-70
2023/09/27 02:51:02;;;;;;;6.60;5.80;;;10.50;72.40;;;;;;5053472;28;20500;-71
2023/09/27 02:53:28;;;;;;;7.23;5.47;;;10.40;71.60;;;;;;5052820;28;20178;-71
2023/09/27 02:55:54;;;;;;;7.03;5.70;;;10.30;71.50;;;;;;5053016;28;20167;-71
2023/09/27 02:58:21;;;;;;;9.53;4.90;;;10.30;73.00;;;;;;5052965;28;20929;-70
2023/09/27 03:00:48;;;;;;;6.03;5.43;;;10.40;73.70;;;;;;5053167;28;20163;-70
2023/09/27 03:03:13;;;;;;;7.27;5.70;;;10.40;74.00;;;;;;5052702;28;20523;-71
2023/09/27 03:05:40;;;;;;;6.23;5.60;;;10.40;74.10;;;;;;5052873;28;20493;-71
2023/09/27 03:08:06;;;;;;;9.30;5.80;;;10.30;73.40;;;;;;5052462;28;20641;-70
2023/09/27 03:10:37;;;;;;;6.03;5.43;;;10.30;73.20;;;;;;5053035;28;20896;-71
2023/09/27 03:13:02;;;;;;;6.13;5.53;;;10.30;74.10;;;;;;5052437;28;20447;-71
2023/09/27 03:15:31;;;;;;;6.17;5.57;;;10.30;72.90;;;;;;5052554;28;20409;-70
2023/09/27 03:17:56;;;;;;;5.87;5.13;;;10.30;73.70;;;;;;5052664;28;20194;-70
2023/09/27 03:20:22;;;;;;;7.17;5.60;;;10.30;73.30;;;;;;5052501;28;20449;-70
2023/09/27 03:22:48;;;;;;;7.90;6.03;;;10.30;73.80;;;;;;5034521;28;20225;-71
2023/09/27 03:25:16;;;;;;;6.03;5.43;;;10.30;74.40;;;;;;5052256;28;20255;-69
2023/09/27 03:27:42;;;;;;;7.37;5.53;;;10.20;74.30;;;;;;5052536;28;20401;-70
2023/09/27 03:30:08;;;;;;;6.80;6.13;;;10.20;74.70;;;;;;5052302;28;20849;-70
2023/09/27 03:32:33;;;;;;;7.37;6.63;;;10.20;75.40;;;;;;5034420;28;20180;-71
2023/09/27 03:34:59;;;;;;;6.43;5.33;;;10.20;75.60;;;;;;5034375;28;20834;-70
2023/09/27 03:37:25;;;;;;;7.23;6.20;;;10.20;74.70;;;;;;5052230;28;20250;-71
2023/09/27 03:39:54;;;;;;;8.80;6.07;;;10.20;74.60;;;;;;5052165;28;20523;-70
2023/09/27 03:42:20;;;;;;;8.17;4.97;;;10.20;74.60;;;;;;5052105;28;20253;-70
2023/09/27 03:44:47;;;;;;;6.00;5.40;;;10.20;73.90;;;;;;5051962;28;20663;-71
2023/09/27 03:47:12;;;;;;;7.47;4.80;;;10.20;74.40;;;;;;5052140;28;20167;-70
2023/09/27 03:49:40;;;;;;;5.53;4.90;;;10.30;73.40;;;;;;5052121;28;20476;-71
2023/09/27 03:52:06;;;;;;;5.30;4.67;;;10.30;73.40;;;;;;5052002;28;20174;-71
2023/09/27 03:54:32;;;;;;;6.17;4.97;;;10.20;73.00;;;;;;5051759;28;20434;-71
2023/09/27 03:56:58;;;;;;;5.73;4.00;;;10.20;74.20;;;;;;5034056;28;20482;-71
2023/09/27 03:59:24;;;;;;;5.80;4.13;;;10.20;73.10;;;;;;5051839;28;20209;-68
2023/09/27 04:01:49;;;;;;;6.33;5.00;;;10.20;73.00;;;;;;5051859;28;20444;-69
2023/09/27 04:04:15;;;;;;;7.37;5.03;;;10.30;74.30;;;;;;5051663;28;20626;-70
2023/09/27 04:06:40;;;;;;;6.07;5.20;;;10.30;73.20;;;;;;5051700;28;20209;-69
2023/09/27 04:09:08;;;;;;;5.03;4.53;;;10.20;72.60;;;;;;5051703;28;20744;-69
2023/09/27 04:11:33;;;;;;;7.40;5.00;;;10.20;71.40;;;;;;5033961;28;20705;-69
2023/09/27 04:13:59;;;;;;;6.03;4.43;;;10.10;71.40;;;;;;5051622;28;20456;-68
2023/09/27 04:16:28;;;;;;;7.20;5.43;;;10.00;71.20;;;;;;5051705;28;20178;-70
2023/09/27 04:18:53;;;;;;;6.50;5.40;;;10.00;72.70;;;;;;5051466;28;20676;-70
2023/09/27 04:21:19;;;;;;;6.20;5.60;;;10.10;72.20;;;;;;5051519;28;20421;-70
2023/09/27 04:23:54;;;;;;;7.10;5.63;;;10.00;71.50;;;;;;5051517;28;20420;-69
2023/09/27 04:26:20;;;;;;;6.03;5.43;;;10.00;75.20;;;;;;5052708;28;20185;-70
2023/09/27 04:28:45;;;;;;;6.57;5.80;;;10.00;73.50;;;;;;5037800;28;20440;-70
2023/09/27 04:31:11;;;;;;;7.50;6.77;;;10.00;73.70;;;;;;5055810;28;20178;-69
2023/09/27 04:33:38;;;;;;;6.73;5.93;;;10.00;74.90;;;;;;5037571;28;20198;-70
2023/09/27 04:36:05;;;;;;;5.90;5.30;;;10.10;74.20;;;;;;5037704;28;20181;-70
2023/09/27 04:38:31;;;;;;;6.27;5.67;;;10.10;73.60;;;;;;5055737;28;20483;-70
2023/09/27 04:40:56;;;;;;;6.47;5.47;;;10.00;73.30;;;;;;5055609;28;20417;-70
2023/09/27 04:43:22;;;;;;;5.67;5.17;;;10.00;72.90;;;;;;5037507;28;20182;-70
2023/09/27 04:45:49;;;;;;;9.07;5.27;;;10.00;73.40;;;;;;5055470;28;20220;-69
2023/09/27 04:48:14;;;;;;;6.90;5.30;;;10.00;72.20;;;;;;5055413;28;20186;-70
2023/09/27 04:50:40;;;;;;;5.60;4.43;;;9.90;73.30;;;;;;5055650;28;20813;-70
2023/09/27 04:53:05;;;;;;;6.27;5.63;;;9.90;74.10;;;;;;5055261;28;20199;-70
2023/09/27 04:55:31;;;;;;;7.33;5.53;;;9.90;74.10;;;;;;5055381;28;20695;-70
2023/09/27 04:57:56;;;;;;;5.73;5.03;;;9.80;73.80;;;;;;5055243;28;20728;-70
2023/09/27 05:00:22;;;;;;;5.43;4.93;;;9.80;73.70;;;;;;5055260;28;20554;-69
2023/09/27 05:02:50;;;;;;;6.30;5.17;;;9.80;73.90;;;;;;5055077;28;20173;-70
2023/09/27 05:05:16;;;;;;;4.70;4.20;;;9.80;72.10;;;;;;5036912;28;20460;-69
2023/09/27 05:07:41;;;;;;;5.83;4.50;;;9.70;72.00;;;;;;5055203;28;20427;-70
2023/09/27 05:10:07;;;;;;;5.97;4.27;;;9.60;71.90;;;;;;5055010;28;20665;-70
2023/09/27 05:12:33;;;;;;;5.13;4.60;;;9.60;73.90;;;;;;5055087;28;20171;-69
2023/09/27 05:14:58;;;;;;;6.43;3.90;;;9.60;72.80;;;;;;5054975;28;20416;-70
2023/09/27 05:17:25;;;;;;;5.20;4.70;;;9.60;74.00;;;;;;5054974;28;20179;-70
2023/09/27 05:19:50;;;;;;;6.10;4.10;;;9.60;74.20;;;;;;5054674;28;20197;-70
2023/09/27 05:22:19;;;;;;;5.97;5.00;;;9.60;73.50;;;;;;5054667;28;20427;-69
2023/09/27 05:24:45;;;;;;;6.73;5.10;;;9.60;74.20;;;;;;5054542;28;20213;-70
2023/09/27 05:27:11;;;;;;;5.60;4.93;;;9.60;74.60;;;;;;5054809;28;20852;-70
2023/09/27 05:29:36;;;;;;;6.33;5.40;;;9.60;74.40;;;;;;5054698;28;20510;-70
2023/09/27 05:32:02;;;;;;;5.07;4.57;;;9.60;74.60;;;;;;5054679;28;20179;-70
2023/09/27 05:34:29;;;;;;;4.70;3.83;;;9.60;75.30;;;;;;5054589;28;20179;-69
2023/09/27 05:36:55;;;;;;;5.00;4.50;;;9.60;75.00;;;;;;5054556;28;20413;-70
2023/09/27 05:39:22;;;;;;;6.03;5.10;;;9.70;74.30;;;;;;5054368;28;21030;-71
2023/09/27 05:41:47;;;;;;;7.03;5.47;;;9.70;75.20;;;;;;5054429;28;20276;-70
2023/09/27 05:44:13;;;;;;;5.67;5.10;;;9.70;75.50;;;;;;5053983;28;20547;-71
2023/09/27 05:46:40;;;;;;;7.10;5.47;;;9.80;77.00;;;;;;5054200;28;20180;-71
2023/09/27 05:49:09;;;;;;;6.73;5.90;;;9.90;75.50;;;;;;5054143;28;20197;-71
2023/09/27 05:51:35;;;;;;;6.20;5.20;;;9.90;75.00;;;;;;5054158;28;20416;-70
2023/09/27 05:54:00;;;;;;;5.63;4.80;;;10.00;74.30;;;;;;5054059;28;20848;-71
2023/09/27 05:56:27;;;;;;;9.03;6.97;;;10.00;73.10;;;;;;5054152;28;20414;-72
2023/09/27 05:58:53;;;;;;;6.53;5.70;;;10.10;74.00;;;;;;5035913;28;20284;-71
2023/09/27 06:01:19;;;;;;;5.77;5.17;;;10.10;72.70;;;;;;5054125;28;20551;-70
2023/09/27 06:03:49;;;;;;;6.40;4.60;;;10.20;73.10;;;;;;5035760;28;20182;-70
2023/09/27 06:06:14;;;;;;;6.67;5.30;;;10.30;73.50;;;;;;5053870;28;20413;-71
2023/09/27 06:08:40;;;;;;;9.90;6.53;;;10.40;71.60;;;;;;5053561;28;20513;-71
2023/09/27 06:11:07;;;;;;;5.83;4.70;;;10.40;71.60;;;;;;5053789;28;20201;-71
2023/09/27 06:13:32;;;;;;;7.03;5.47;;;10.50;71.70;;;;;;5053652;28;20414;-73
2023/09/27 06:16:01;;;;;;;7.10;5.20;;;10.60;70.80;;;;;;5053870;28;20439;-71
2023/09/27 06:18:27;;;;;;;6.67;5.93;;;10.70;70.20;;;;;;5053937;28;20215;-71
2023/09/27 06:20:53;;;;;;;7.30;4.70;;;10.80;67.70;;;;;;5053706;28;20444;-71
2023/09/27 06:23:19;;;;;;;9.10;5.20;;;10.90;65.90;;;;;;5035771;28;20241;-71
2023/09/27 06:25:46;;;;;;;7.30;3.83;;;11.00;64.70;;;;;;5053551;28;20248;-71
2023/09/27 06:28:15;;;;;;;5.00;4.30;;;11.10;65.20;;;;;;5053468;28;20425;-70
2023/09/27 06:30:41;;;;;;;13.30;6.23;;;11.20;64.60;;;;;;5053518;28;20507;-71
2023/09/27 06:33:08;;;;;;;10.93;6.10;;;11.40;62.40;;;;;;5053315;28;20422;-71
2023/09/27 06:35:36;;;;;;;5.43;4.60;;;11.50;59.70;;;;;;5035623;28;20428;-71
2023/09/27 06:38:02;;;;;;;5.93;5.07;;;11.70;59.00;;;;;;5053444;28;20409;-70
2023/09/27 06:40:29;;;;;;;7.67;4.40;;;11.90;57.90;;;;;;5053354;28;20417;-71
2023/09/27 06:42:55;;;;;;;6.17;4.40;;;12.00;57.00;;;;;;5053370;28;20442;-70
2023/09/27 06:45:22;;;;;;;9.90;4.80;;;12.10;53.50;;;;;;5035280;28;20871;-71
2023/09/27 06:47:48;;;;;;;11.30;4.60;;;12.20;53.30;;;;;;5053089;28;20408;-70
2023/09/27 06:50:16;;;;;;;5.20;4.10;;;12.40;50.30;;;;;;5052737;28;20431;-70
2023/09/27 06:52:43;;;;;;;6.90;4.63;;;12.50;51.00;;;;;;5053359;28;20968;-70
2023/09/27 06:55:13;;;;;;;6.53;5.03;;;12.60;50.50;;;;;;5052953;28;20417;-70
2023/09/27 06:57:40;;;;;;;5.30;4.00;;;12.70;49.80;;;;;;5053341;28;20775;-70
2023/09/27 07:00:12;;;;;;;5.97;4.23;;;12.80;50.40;;;;;;5052829;28;20441;-70
2023/09/27 07:02:41;;;;;;;5.30;3.90;;;12.90;48.20;;;;;;5034874;28;20513;-70
2023/09/27 07:05:11;;;;;;;6.43;3.90;;;13.00;44.50;;;;;;5034746;28;20809;-70
2023/09/27 07:07:37;;;;;;;5.57;3.53;;;13.10;45.50;;;;;;5052873;28;20412;-69
2023/09/27 07:10:03;;;;;;;5.63;3.77;;;13.20;44.40;;;;;;5052764;28;20679;-69
2023/09/27 07:12:30;;;;;;;3.87;3.20;;;13.30;43.90;;;;;;5052918;28;20437;-69
2023/09/27 07:14:57;;;;;;;11.10;5.13;;;13.50;41.70;;;;;;5052826;28;20861;-70
2023/09/27 07:17:25;;;;;;;10.00;4.07;;;13.60;42.00;;;;;;5052725;28;20508;-70
2023/09/27 07:19:53;;;;;;;7.53;4.70;;;13.70;40.90;;;;;;5052748;28;20478;-70
2023/09/27 07:22:19;;;;;;;5.17;4.60;;;13.80;39.30;;;;;;5052652;28;20418;-70
2023/09/27 07:24:45;;;;;;;6.80;4.53;;;13.80;38.60;;;;;;5052398;28;20464;-69
2023/09/27 07:27:11;;;;;;;7.13;5.40;;;13.80;38.10;;;;;;5052513;28;20204;-69
2023/09/27 07:29:37;;;;;;;5.90;5.30;;;13.80;43.10;;;;;;5052656;28;20224;-70
2023/09/27 07:32:04;;;;;;;6.27;5.20;;;13.90;41.80;;;;;;5052338;28;20896;-69
2023/09/27 07:34:30;;;;;;;6.07;5.13;;;14.00;40.40;;;;;;5052148;28;20174;-70
2023/09/27 07:36:56;;;;;;;4.53;4.10;;;14.10;39.50;;;;;;5052380;28;20792;-70
2023/09/27 07:39:22;;;;;;;5.73;4.53;;;;;;;;;;5052141;28;20447;-70
2023/09/27 07:41:49;;;;;;;9.90;4.50;;;;;;;;;;5052236;28;20186;-70
2023/09/27 07:44:15;;;;;;;5.43;4.30;;;;;;;;;;5034047;28;20491;-70
2023/09/27 07:46:41;;;;;;;6.70;4.50;;;;;;;;;;5052376;28;20412;-71
2023/09/27 07:49:08;;;;;;;6.70;4.77;;;;;;;;;;5051960;28;20564;-69
2023/09/27 07:51:35;;;;;;;8.73;5.67;;;;;;;;;;5034030;28;20471;-70
2023/09/27 07:54:03;;;;;;;8.67;3.90;;;14.90;43.10;;;;;;5051743;28;20414;-69
2023/09/27 07:56:36;;;;;;;5.00;3.70;;;15.10;43.30;;;;;;5052084;28;20732;-70
2023/09/27 07:59:03;;;;;;;5.20;4.70;;;15.20;40.90;;;;;;5051833;28;20425;-70
2023/09/27 08:01:29;;;;;;;5.50;5.00;;;15.20;34.30;;;;;;5051044;28;20418;-69
2023/09/27 08:04:05;;;;;;;7.00;4.43;;;15.80;31.10;;;;;;5051801;28;20821;-70
2023/09/27 08:06:30;;;;;;;5.10;4.27;;;16.10;29.60;;;;;;5051972;28;20587;-70
2023/09/27 08:08:57;;;;;;;6.07;4.50;;;16.00;27.90;;;;;;5052019;28;20507;-69
2023/09/27 08:11:23;;;;;;;6.37;4.60;;;16.40;27.00;;;;;;5052006;28;20167;-70
2023/09/27 08:13:48;;;;;;;5.80;3.87;;;16.50;25.60;;;;;;5051547;28;20478;-70
2023/09/27 08:16:14;;;;;;;5.40;4.20;;;16.50;27.10;;;;;;5051920;28;20167;-69
2023/09/27 08:18:42;;;;;;;7.27;4.63;;;16.70;26.40;;;;;;5051669;28;20190;-69
2023/09/27 08:21:08;;;;;;;6.20;4.40;;;16.90;24.70;;;;;;5051553;28;20162;-69
2023/09/27 08:23:34;;;;;;;7.70;5.10;;;16.80;25.60;;;;;;5051662;28;20559;-69
2023/09/27 08:26:00;;;;;;;4.27;3.50;;;16.60;26.20;;;;;;5051574;28;20472;-69
2023/09/27 08:28:26;;;;;;;4.40;3.97;;;16.50;27.00;;;;;;5051708;28;20729;-69
2023/09/27 08:30:56;;;;;;;5.50;4.17;;;16.50;27.10;;;;;;5051650;28;20551;-69
2023/09/27 08:33:22;;;;;;;6.43;4.10;;;16.50;27.10;;;;;;5051295;28;20185;-69
2023/09/27 08:35:52;;;;;;;11.80;4.90;;;16.30;26.90;;;;;;5051522;28;20413;-69
2023/09/27 08:38:17;;;;;;;8.10;5.20;;;16.30;26.90;;;;;;5051576;28;20208;-69
2023/09/27 08:40:43;;;;;;;6.20;5.00;;;16.40;28.10;;;;;;5052295;28;20413;-69
2023/09/27 08:43:10;;;;;;;6.00;4.70;;;16.50;27.50;;;;;;5034052;28;20265;-69
2023/09/27 08:45:38;;;;;;;7.47;3.90;;;16.50;27.90;;;;;;5051340;28;20210;-69
2023/09/27 08:48:04;;;;;;;4.90;3.80;;;16.70;27.70;;;;;;5051521;28;20470;-69
2023/09/27 08:50:31;;;;;;;11.47;5.27;;;16.80;27.30;;;;;;5051322;28;20962;-70
2023/09/27 08:52:57;;;;;;;6.43;4.57;;;16.90;26.20;;;;;;5051418;28;20416;-70
2023/09/27 08:55:23;;;;;;;5.40;4.43;;;17.00;26.20;;;;;;5051141;28;20425;-69
2023/09/27 08:57:51;;;;;;;5.37;4.57;;;17.20;25.80;;;;;;5051111;28;20584;-69
2023/09/27 09:00:22;;;;;;;5.50;4.07;;;17.20;26.10;;;;;;5051254;28;20262;-69
2023/09/27 09:02:50;;;;;;;5.40;4.57;;;17.30;26.10;;;;;;5033502;28;20417;-69
2023/09/27 09:05:18;;;;;;;11.57;10.47;;;17.50;25.10;;;;;;5051049;28;20815;-69
2023/09/27 09:07:43;;;;;;;4.70;4.03;;;17.70;25.80;;;;;;5051149;28;20461;-69
2023/09/27 09:10:13;;;;;;;4.63;3.80;;;17.80;24.10;;;;;;5033073;28;20491;-69
2023/09/27 09:12:41;;;;;;;7.13;4.27;;;18.00;24.20;;;;;;5052450;28;20201;-70
2023/09/27 09:15:08;;;;;;;5.83;4.77;;;18.10;23.60;;;;;;5054686;28;20413;-69
2023/09/27 09:17:34;;;;;;;4.50;4.03;;;18.20;23.20;;;;;;5054760;28;20792;-69
2023/09/27 09:20:15;;;;;;;4.30;3.33;;;18.30;22.40;;;;;;5054696;28;20471;-69
2023/09/27 09:22:44;;;;;;;4.77;3.77;;;18.40;22.60;;;;;;5054598;28;20488;-69
2023/09/27 09:25:10;;;;;;;8.07;3.80;;;18.60;23.30;;;;;;5054309;28;20503;-69
2023/09/27 09:27:37;;;;;;;5.40;3.80;;;18.60;23.70;;;;;;5055153;28;20818;-69
2023/09/27 09:30:06;;;;;;;5.67;4.40;;;18.80;23.00;;;;;;5054806;28;20425;-69
2023/09/27 09:32:32;;;;;;;7.13;3.87;;;18.80;24.70;;;;;;5054499;28;20397;-70
2023/09/27 09:34:58;;;;;;;4.57;3.77;;;19.00;23.40;;;;;;5054377;28;20412;-70
2023/09/27 09:37:27;;;;;;;5.30;3.97;;;19.10;22.90;;;;;;5054635;28;20425;-69
2023/09/27 09:40:02;;;;;;;9.43;4.13;;;19.30;23.70;;;;;;5054366;28;20195;-70
2023/09/27 09:42:34;;;;;;;5.70;4.63;;;19.50;23.00;;;;;;5036698;28;20623;-69
2023/09/27 09:45:02;;;;;;;6.53;4.07;;;19.70;23.30;;;;;;5054330;28;20460;-70
2023/09/27 09:47:30;;;;;;;10.00;4.10;;;19.80;21.40;;;;;;5054465;28;21000;-70
2023/09/27 09:49:55;;;;;;;5.53;3.43;;;20.10;21.00;;;;;;5054140;28;20432;-70
2023/09/27 09:52:27;;;;;;;6.17;4.03;;;20.20;22.20;;;;;;5054303;28;20417;-70
2023/09/27 09:54:57;;;;;;;7.33;4.37;;;20.40;21.70;;;;;;5054215;28;20187;-70
2023/09/27 09:57:31;;;;;;;4.87;3.70;;;20.40;19.30;;;;;;5054337;28;20824;-70
2023/09/27 10:00:12;;;;;;;3.90;3.00;;;20.50;20.30;;;;;;5054135;28;20519;-70
2023/09/27 10:03:00;;;;;;;4.13;3.40;;;20.70;19.40;;;;;;5054565;28;20423;-70
2023/09/27 10:05:28;;;;;;;12.40;3.47;;;20.80;19.50;;;;;;5053913;28;20547;-70
2023/09/27 10:07:54;;;;;;;6.03;4.00;;;21.00;18.70;;;;;;5054136;28;20416;-69
2023/09/27 10:10:21;;;;;;;3.40;2.57;;;21.10;17.80;;;;;;5053946;28;20463;-69
2023/09/27 10:12:50;;;;;;;4.57;3.43;;;21.20;17.60;;;;;;5053828;28;20433;-70
2023/09/27 10:15:18;;;;;;;5.70;4.17;;;21.40;16.40;;;;;;5053644;28;20930;-70
2023/09/27 10:17:43;;;;;;;4.60;3.43;;;21.50;15.80;;;;;;5053771;28;20401;-70
2023/09/27 10:20:24;;;;;;;4.57;3.07;;;21.50;15.80;;;;;;5053596;28;20943;-70
2023/09/27 10:22:50;;;;;;;4.90;3.50;;;21.60;15.10;;;;;;5053746;28;20178;-70
2023/09/27 10:25:31;;;;;;;4.30;3.47;;;21.80;14.50;;;;;;5052601;28;20441;-70
2023/09/27 10:28:01;;;;;;;8.13;4.23;;;21.90;14.80;;;;;;5053509;28;20904;-70
2023/09/27 10:30:27;;;;;;;5.00;4.47;;;21.90;14.40;;;;;;5053643;28;20493;-70
2023/09/27 10:33:14;;;;;;;5.47;3.60;;;22.00;14.80;;;;;;5053470;28;20420;-70
2023/09/27 10:35:41;;;;;;;5.13;3.10;;;22.10;13.70;;;;;;5053441;28;20408;-70
2023/09/27 10:38:10;;;;;;;7.93;4.00;;;22.20;14.10;;;;;;5035306;28;20512;-70
2023/09/27 10:40:46;;;;;;;4.90;4.40;;;22.30;14.20;;;;;;5053290;28;20413;-70
2023/09/27 10:43:40;;;;;;;6.33;3.80;;;22.30;13.30;;;;;;5053077;28;20417;-70
2023/09/27 10:46:07;;;;;;;4.10;3.40;;;22.40;12.90;;;;;;5053233;28;20456;-70
2023/09/27 10:48:33;;;;;;;9.73;4.17;;;22.60;12.50;;;;;;5052978;28;20507;-70
2023/09/27 10:50:58;;;;;;;4.80;3.53;;;22.70;12.30;;;;;;5035131;28;20500;-70
2023/09/27 10:53:25;;;;;;;5.17;3.57;;;22.80;12.20;;;;;;5053128;28;20504;-69
2023/09/27 10:55:50;;;;;;;4.70;3.30;;;22.70;12.00;;;;;;5053219;28;20416;-70
2023/09/27 10:58:17;;;;;;;5.80;3.77;;;22.80;12.10;;;;;;5052986;28;20433;-70
2023/09/27 11:00:55;;;;;;;3.87;3.47;;;22.90;11.10;;;;;;5052945;28;20231;-69
2023/09/27 11:03:21;;;;;;;4.07;3.40;;;23.00;10.60;;;;;;5052876;28;20413;-69
2023/09/27 11:05:47;;;;;;;3.97;3.10;;;23.20;10.50;;;;;;5052914;28;20806;-70
2023/09/27 11:08:21;;;;;;;5.60;3.77;;;23.20;9.90;;;;;;5052795;28;20452;-70
2023/09/27 11:10:48;;;;;;;3.80;3.43;;;23.30;10.00;;;;;;5052843;28;20404;-70
2023/09/27 11:13:13;;;;;;;9.50;4.70;;;23.50;10.00;;;;;;5052645;28;20405;-70
2023/09/27 11:15:40;;;;;;;89.20;22.00;;;23.70;9.50;;;;;;5052702;28;20829;-70
2023/09/27 11:18:12;;;;;;;5.60;3.73;;;23.70;9.10;;;;;;5052792;28;20269;-70
2023/09/27 11:20:40;;;;;;;3.77;3.17;;;23.70;8.70;;;;;;5052452;28;20888;-70
2023/09/27 11:23:06;;;;;;;5.30;4.40;;;23.80;8.60;;;;;;5052330;28;20482;-70
2023/09/27 11:25:34;;;;;;;4.70;4.13;;;23.80;8.10;;;;;;5052479;28;20453;-70
2023/09/27 11:28:00;;;;;;;4.03;3.30;;;23.80;8.60;;;;;;5052544;28;21114;-70
2023/09/27 11:30:35;;;;;;;7.10;3.97;;;23.80;8.40;;;;;;5034437;28;20413;-70
2023/09/27 11:33:06;;;;;;;4.67;3.30;;;23.90;8.20;;;;;;5034381;28;20413;-70
2023/09/27 11:35:32;;;;;;;3.23;2.93;;;24.20;8.10;;;;;;5052182;28;20408;-70
2023/09/27 11:38:11;;;;;;;3.60;3.30;;;24.40;8.10;;;;;;5052294;28;20459;-70
2023/09/27 11:40:38;;;;;;;4.40;4.00;;;24.50;6.80;;;;;;5052165;28;20170;-70
2023/09/27 11:43:04;;;;;;;3.93;3.53;;;24.50;7.30;;;;;;5052150;28;20547;-70
2023/09/27 11:45:49;;;;;;;4.77;3.63;;;24.50;6.50;;;;;;5052006;28;20453;-70
2023/09/27 11:48:15;;;;;;;4.40;4.00;;;24.70;6.60;;;;;;5052246;28;20435;-70
2023/09/27 11:50:41;;;;;;;4.30;3.90;;;24.90;6.70;;;;;;5034032;28;20784;-70
2023/09/27 11:53:07;;;;;;;3.93;3.50;;;24.80;6.20;;;;;;5051507;28;20405;-70
2023/09/27 11:55:33;;;;;;;3.07;2.87;;;24.80;6.20;;;;;;5051989;28;20466;-70
2023/09/27 11:57:59;;;;;;;4.90;4.00;;;24.80;6.30;;;;;;5051744;28;20171;-70
2023/09/27 12:00:25;;;;;;;5.57;3.10;;;24.70;6.20;;;;;;5051762;28;20197;-70
2023/09/27 12:02:51;;;;;;;4.93;4.10;;;24.70;6.20;;;;;;5051714;28;20420;-70
2023/09/27 12:05:17;;;;;;;16.23;4.37;;;25.00;5.10;;;;;;5051516;28;20826;-70
2023/09/27 12:07:44;;;;;;;3.67;3.37;;;25.10;5.00;;;;;;5051656;28;20500;-70
2023/09/27 12:10:10;;;;;;;3.50;3.20;;;25.20;5.00;;;;;;5051486;28;20589;-70
2023/09/27 12:12:37;;;;;;;3.53;3.23;;;25.30;5.20;;;;;;5051685;28;20405;-70
2023/09/27 12:15:03;;;;;;;4.47;4.07;;;25.60;5.00;;;;;;5051420;28;20785;-70
2023/09/27 12:17:30;;;;;;;3.90;3.10;;;25.70;3.60;;;;;;5051622;28;20413;-70
2023/09/27 12:19:56;;;;;;;3.37;2.90;;;25.70;3.50;;;;;;5051494;28;20948;-70
2023/09/27 12:22:23;;;;;;;3.83;3.43;;;25.70;4.40;;;;;;5051453;28;20503;-70
2023/09/27 12:24:48;;;;;;;3.83;3.53;;;25.90;3.60;;;;;;5051283;28;20535;-70
2023/09/27 12:27:14;;;;;;;6.63;3.70;;;25.90;3.40;;;;;;5051421;28;20508;-70
2023/09/27 12:29:40;;;;;;;3.27;2.97;;;25.70;3.20;;;;;;5051434;28;20194;-70
2023/09/27 12:32:05;;;;;;;11.97;4.13;;;25.70;4.30;;;;;;5033712;28;20691;-70
2023/09/27 12:34:31;;;;;;;6.27;2.90;;;25.90;4.40;;;;;;5051164;28;20217;-70
2023/09/27 12:36:56;;;;;;;4.53;4.20;;;25.90;4.50;;;;;;5051288;28;20179;-70
2023/09/27 12:39:22;;;;;;;4.73;3.20;;;26.10;4.90;;;;;;5051217;28;20190;-70
2023/09/27 12:41:47;;;;;;;4.13;3.47;;;26.10;3.70;;;;;;5051336;28;20228;-70
2023/09/27 12:44:13;;;;;;;8.60;3.30;;;;;;;;;;5051029;28;20304;-70
2023/09/27 12:46:40;;;;;;;3.63;3.33;;;;;;;;;;5051335;28;20171;-70
2023/09/27 12:49:06;;;;;;;7.13;3.50;;;;;;;;;;5055023;28;20428;-70